Ana Sayfa
METAR-TAF:

METAR-TAF

Havaalanları :

Phrae, Tayland

Enlem: 18-10N, Boylam: 100-10E, yükseklik: 161 m

Güncel hava durumu gözlemi

Rapor saat 11:00 UTC de 10 saat ve 27 dakika önce yapıldı.
Rüzgar değişken yönden 2 kt
Sıcaklık 32°C
Nem 34%
Basınç 1010 hPa
Görüş mesafesi: 6000 m

METAR: VTCP 241100Z VRB02KT 6000 NSC 32/14 Q1010 NOSIG

Saat: 04:27 (21:27 UTC)

Tahmin

Rapor saat 17:00 UTC de 4 saat ve 27 dakika önce yapıldı.
Ayın 24'si saat 18 UTC'den ayın 25'si saat 18 UTC'ye kadar geçerli Tahmin
Rüzgar güney/güneybatıdan 5 kt
Görüş mesafesi: 6000 m
Dönüşüyor
ayın 25'si saat 01 UTC'den ayın 25'si saat 03 UTC'ye kadar
Görüş mesafesi: 2000 m
Pus
Dönüşüyor
ayın 25'si saat 06 UTC'den ayın 25'si saat 08 UTC'ye kadar
Görüş mesafesi: 5000 m
Toz Pusu

TAF: VTCP 241700Z 2418/2518 20005KT 6000 NSC BECMG 2501/2503 2000 BR BECMG 2506/2508 5000 HZ

4.000'den fazla havaalanı için hava durumu gözlemleri ve tahminleri (METAR ve TAF raporları).

Kullanılabilir istasyonlar harita üzerinde sarı ve kırmızı noktalarla gösterilir.

İstasyonun adını görmek için fareyi noktanın üzerinde gezdirin.

Sonrasında hava gözlem ve tahminlerini görmek için tıklayın.

Haritayı değiştirmek için: yaklaştırmak için siyah artı işaretli yeşil düğmeye ve uzaklaştırmak için de eksi işaretli düğmeye hızla tıklayın; bitişik haritalar için yeşil okları kullanın.


METAR-TAF: